CheckWX is a tool to help pilots better visualize weather data.  It is not intended as a substitute for an official pre-flight weather briefing.

14:00:17 UTC

KTWF METAR
Joslin Field - Magic Valley Regional Airport
Twin Falls, Idaho, USA
Current

1 hour ago

KTWF 051253Z 18004KT 10SM CLR 00/M02 A2969 RMK AO2 SLP036 T00001022
Observed
Apr-5 @ 12:53 UTC
Wind
  • 180° at 4 KTS
Visibility
Flight Rules
VFR
Cloud Levels
  • Clear skies
Temperature
C / 32°F
Dewpoint
-2°C / 28°F
Humidity
87%
Altimeter
29.69" Hg
Pressure
1005.42 hPa
Previous

2 hours ago

KTWF 051153Z 08003KT 10SM FEW065 02/M01 A2969 RMK AO2 RAB04E25 SLP034 P0000 60000 T00171006 10056 20011 53005
Observed
Apr-5 @ 11:53 UTC
Wind
  • 080° at 3 KTS
Visibility
Flight Rules
VFR
Cloud Levels
  • Few at 6,500' AGL
Temperature
C / 36°F
Dewpoint
-1°C / 30°F
Humidity
81%
Altimeter
29.69" Hg
Pressure
1005.42 hPa
Current Rain
0.01"
Previous

3 hours ago

KTWF 051053Z AUTO 21009KT 10SM BKN070 OVC090 04/01 A2968 RMK AO2 SLP026 T00440006
Observed
Apr-5 @ 10:53 UTC
Wind
  • 210° at 9 KTS
Visibility
Flight Rules
VFR
Cloud Levels
  • Broken at 7,000' AGL
  • Overcast at 9,000' AGL
Temperature
C / 39°F
Dewpoint
C / 34°F
Humidity
81%
Altimeter
29.68" Hg
Pressure
1005.12 hPa